sensor_id;sensor_type;location;lat;lon;timestamp;pressure;altitude;pressure_sealevel;temperature;humidity
57234;BME280;43090;52.604;13.318;2022-11-13T00:02:08;102610.03;;;6.46;100.00
57234;BME280;43090;52.604;13.318;2022-11-13T00:08:15;102611.38;;;6.62;100.00
57234;BME280;43090;52.604;13.318;2022-11-13T00:11:19;102643.19;;;6.69;100.00
57234;BME280;43090;52.604;13.318;2022-11-13T00:14:40;102590.69;;;6.38;100.00
57234;BME280;43090;52.604;13.318;2022-11-13T00:17:28;102623.44;;;6.77;100.00
57234;BME280;43090;52.604;13.318;2022-11-13T00:19:57;102584.09;;;6.54;100.00
57234;BME280;43090;52.604;13.318;2022-11-13T00:22:44;102607.75;;;6.66;100.00
57234;BME280;43090;52.604;13.318;2022-11-13T00:29:06;102573.38;;;6.57;100.00
57234;BME280;43090;52.604;13.318;2022-11-13T00:32:21;102597.44;;;6.89;100.00
57234;BME280;43090;52.604;13.318;2022-11-13T00:34:56;102575.69;;;6.71;100.00
57234;BME280;43090;52.604;13.318;2022-11-13T00:37:46;102620.13;;;7.04;100.00
57234;BME280;43090;52.604;13.318;2022-11-13T00:41:09;102556.81;;;6.80;100.00
57234;BME280;43090;52.604;13.318;2022-11-13T00:48:44;102576.16;;;6.87;100.00
57234;BME280;43090;52.604;13.318;2022-11-13T00:51:34;102561.75;;;6.94;100.00
57234;BME280;43090;52.604;13.318;2022-11-13T00:54:42;102620.28;;;7.32;100.00
57234;BME280;43090;52.604;13.318;2022-11-13T00:57:21;102583.53;;;7.10;100.00
57234;BME280;43090;52.604;13.318;2022-11-13T01:08:14;102607.38;;;7.48;100.00
57234;BME280;43090;52.604;13.318;2022-11-13T01:10:54;102548.84;;;7.13;100.00
57234;BME280;43090;52.604;13.318;2022-11-13T01:13:49;102546.22;;;7.12;100.00
57234;BME280;43090;52.604;13.318;2022-11-13T01:16:48;102569.44;;;7.40;100.00
57234;BME280;43090;52.604;13.318;2022-11-13T01:26:47;102575.19;;;7.56;100.00
57234;BME280;43090;52.604;13.318;2022-11-13T01:29:22;102541.72;;;7.45;100.00
57234;BME280;43090;52.604;13.318;2022-11-13T01:31:49;102573.84;;;7.71;100.00
57234;BME280;43090;52.604;13.318;2022-11-13T01:34:17;102538.88;;;7.52;100.00
57234;BME280;43090;52.604;13.318;2022-11-13T01:36:47;102570.22;;;7.73;100.00
57234;BME280;43090;52.604;13.318;2022-11-13T01:39:31;102530.28;;;7.72;100.00
57234;BME280;43090;52.604;13.318;2022-11-13T01:42:16;102526.88;;;7.66;100.00
57234;BME280;43090;52.604;13.318;2022-11-13T01:45:47;102531.09;;;7.74;100.00
57234;BME280;43090;52.604;13.318;2022-11-13T01:51:54;102562.53;;;7.92;100.00
57234;BME280;43090;52.604;13.318;2022-11-13T01:54:29;102569.25;;;8.06;100.00
57234;BME280;43090;52.604;13.318;2022-11-13T01:57:25;102514.06;;;7.79;100.00
57234;BME280;43090;52.604;13.318;2022-11-13T02:00:07;102520.06;;;7.86;100.00
57234;BME280;43090;52.604;13.318;2022-11-13T02:02:35;102504.41;;;7.75;100.00
57234;BME280;43090;52.604;13.318;2022-11-13T02:05:08;102525.28;;;7.89;100.00
57234;BME280;43090;52.604;13.318;2022-11-13T02:07:35;102524.16;;;7.98;100.00
57234;BME280;43090;52.604;13.318;2022-11-13T02:10:01;102566.63;;;8.04;100.00
57234;BME280;43090;52.604;13.318;2022-11-13T02:14:59;102533.88;;;7.99;100.00
57234;BME280;43090;52.604;13.318;2022-11-13T02:20:06;102493.97;;;7.96;100.00
57234;BME280;43090;52.604;13.318;2022-11-13T02:22:40;102491.25;;;7.97;100.00
57234;BME280;43090;52.604;13.318;2022-11-13T02:25:10;102511.38;;;8.08;100.00
57234;BME280;43090;52.604;13.318;2022-11-13T02:27:47;102538.97;;;8.35;100.00
57234;BME280;43090;52.604;13.318;2022-11-13T02:30:18;102523.69;;;8.39;100.00
57234;BME280;43090;52.604;13.318;2022-11-13T02:32:53;102496.63;;;8.24;100.00
57234;BME280;43090;52.604;13.318;2022-11-13T02:35:24;102522.97;;;8.07;100.00
57234;BME280;43090;52.604;13.318;2022-11-13T02:37:54;102504.97;;;8.13;100.00
57234;BME280;43090;52.604;13.318;2022-11-13T02:40:22;102533.78;;;8.57;100.00
57234;BME280;43090;52.604;13.318;2022-11-13T02:42:51;102521.34;;;8.58;100.00
57234;BME280;43090;52.604;13.318;2022-11-13T02:45:18;102530.13;;;8.61;100.00
57234;BME280;43090;52.604;13.318;2022-11-13T02:47:45;102531.84;;;8.88;100.00
57234;BME280;43090;52.604;13.318;2022-11-13T02:50:13;102479.47;;;8.31;100.00
57234;BME280;43090;52.604;13.318;2022-11-13T03:00:39;102456.16;;;8.37;100.00
57234;BME280;43090;52.604;13.318;2022-11-13T03:03:25;102464.78;;;8.45;100.00
57234;BME280;43090;52.604;13.318;2022-11-13T03:06:20;102487.81;;;8.49;100.00
57234;BME280;43090;52.604;13.318;2022-11-13T03:09:08;102446.28;;;8.39;100.00
57234;BME280;43090;52.604;13.318;2022-11-13T03:12:02;102482.09;;;8.60;100.00
57234;BME280;43090;52.604;13.318;2022-11-13T03:14:47;102477.25;;;8.71;100.00
57234;BME280;43090;52.604;13.318;2022-11-13T03:17:16;102499.06;;;8.59;100.00
57234;BME280;43090;52.604;13.318;2022-11-13T03:20:32;102458.34;;;8.52;100.00
57234;BME280;43090;52.604;13.318;2022-11-13T03:23:17;102450.66;;;8.68;100.00
57234;BME280;43090;52.604;13.318;2022-11-13T03:26:22;102485.53;;;8.89;100.00
57234;BME280;43090;52.604;13.318;2022-11-13T03:29:03;102488.09;;;8.92;100.00
57234;BME280;43090;52.604;13.318;2022-11-13T03:31:46;102455.78;;;8.74;100.00
57234;BME280;43090;52.604;13.318;2022-11-13T03:34:29;102471.75;;;8.76;100.00
57234;BME280;43090;52.604;13.318;2022-11-13T03:40:58;102455.78;;;8.74;100.00
57234;BME280;43090;52.604;13.318;2022-11-13T03:47:02;102476.44;;;8.42;100.00
57234;BME280;43090;52.604;13.318;2022-11-13T03:49:28;102521.28;;;8.84;100.00
57234;BME280;43090;52.604;13.318;2022-11-13T03:51:56;102493.16;;;8.74;100.00
57234;BME280;43090;52.604;13.318;2022-11-13T03:54:23;102472.69;;;8.49;100.00
57234;BME280;43090;52.604;13.318;2022-11-13T03:57:29;102468.91;;;8.80;100.00
57234;BME280;43090;52.604;13.318;2022-11-13T04:00:24;102465.25;;;8.83;100.00
57234;BME280;43090;52.604;13.318;2022-11-13T04:02:57;102471.47;;;8.83;100.00
57234;BME280;43090;52.604;13.318;2022-11-13T04:05:30;102469.44;;;8.65;100.00
57234;BME280;43090;52.604;13.318;2022-11-13T04:08:10;102450.69;;;8.66;100.00
57234;BME280;43090;52.604;13.318;2022-11-13T04:11:22;102453.28;;;8.70;100.00
57234;BME280;43090;52.604;13.318;2022-11-13T04:21:23;102417.13;;;8.34;100.00
57234;BME280;43090;52.604;13.318;2022-11-13T04:23:50;102482.53;;;8.73;100.00
57234;BME280;43090;52.604;13.318;2022-11-13T04:26:17;102430.13;;;8.43;100.00
57234;BME280;43090;52.604;13.318;2022-11-13T04:28:44;102425.94;;;8.63;100.00
57234;BME280;43090;52.604;13.318;2022-11-13T04:31:13;102468.19;;;8.75;100.00
57234;BME280;43090;52.604;13.318;2022-11-13T04:33:39;102458.50;;;8.73;100.00
57234;BME280;43090;52.604;13.318;2022-11-13T04:36:11;102437.50;;;8.87;100.00
57234;BME280;43090;52.604;13.318;2022-11-13T04:38:37;102422.66;;;8.80;100.00
57234;BME280;43090;52.604;13.318;2022-11-13T04:41:04;102449.03;;;8.89;100.00
57234;BME280;43090;52.604;13.318;2022-11-13T04:43:49;102433.66;;;8.71;100.00
57234;BME280;43090;52.604;13.318;2022-11-13T04:46:24;102433.34;;;8.55;100.00
57234;BME280;43090;52.604;13.318;2022-11-13T04:48:53;102426.75;;;8.38;100.00
57234;BME280;43090;52.604;13.318;2022-11-13T04:51:19;102478.94;;;8.74;100.00
57234;BME280;43090;52.604;13.318;2022-11-13T04:53:46;102480.16;;;9.14;100.00
57234;BME280;43090;52.604;13.318;2022-11-13T04:56:26;102429.91;;;8.76;100.00
57234;BME280;43090;52.604;13.318;2022-11-13T04:58:59;102457.03;;;8.89;100.00
57234;BME280;43090;52.604;13.318;2022-11-13T05:01:27;102452.41;;;8.94;100.00
57234;BME280;43090;52.604;13.318;2022-11-13T05:03:54;102442.22;;;8.80;100.00
57234;BME280;43090;52.604;13.318;2022-11-13T05:06:21;102425.13;;;8.84;100.00
57234;BME280;43090;52.604;13.318;2022-11-13T05:08:47;102440.50;;;8.78;100.00
57234;BME280;43090;52.604;13.318;2022-11-13T05:11:14;102468.03;;;9.05;100.00
57234;BME280;43090;52.604;13.318;2022-11-13T05:13:45;102432.28;;;8.84;100.00
57234;BME280;43090;52.604;13.318;2022-11-13T05:16:40;102458.41;;;8.76;100.00
57234;BME280;43090;52.604;13.318;2022-11-13T05:19:15;102434.41;;;8.74;100.00
57234;BME280;43090;52.604;13.318;2022-11-13T05:22:15;102438.50;;;9.08;100.00
57234;BME280;43090;52.604;13.318;2022-11-13T05:24:42;102445.66;;;8.84;100.00
57234;BME280;43090;52.604;13.318;2022-11-13T05:27:12;102444.34;;;8.71;100.00
57234;BME280;43090;52.604;13.318;2022-11-13T05:29:43;102421.59;;;8.84;100.00
57234;BME280;43090;52.604;13.318;2022-11-13T05:32:12;102473.09;;;9.13;100.00
57234;BME280;43090;52.604;13.318;2022-11-13T05:34:47;102428.19;;;8.74;100.00
57234;BME280;43090;52.604;13.318;2022-11-13T05:37:14;102435.13;;;9.03;100.00
57234;BME280;43090;52.604;13.318;2022-11-13T05:39:41;102453.91;;;9.02;99.97
57234;BME280;43090;52.604;13.318;2022-11-13T05:42:10;102452.81;;;8.82;100.00
57234;BME280;43090;52.604;13.318;2022-11-13T05:44:37;102443.13;;;8.79;100.00
57234;BME280;43090;52.604;13.318;2022-11-13T05:47:03;102463.03;;;8.96;100.00
57234;BME280;43090;52.604;13.318;2022-11-13T05:49:31;102453.16;;;9.22;99.74
57234;BME280;43090;52.604;13.318;2022-11-13T05:51:57;102443.34;;;9.22;98.40
57234;BME280;43090;52.604;13.318;2022-11-13T05:54:24;102466.91;;;9.34;98.69
57234;BME280;43090;52.604;13.318;2022-11-13T05:56:51;102410.56;;;8.70;100.00
57234;BME280;43090;52.604;13.318;2022-11-13T05:59:17;102412.69;;;8.83;100.00
57234;BME280;43090;52.604;13.318;2022-11-13T06:01:44;102453.34;;;9.17;100.00
57234;BME280;43090;52.604;13.318;2022-11-13T06:04:10;102439.50;;;9.29;98.80
57234;BME280;43090;52.604;13.318;2022-11-13T06:06:37;102433.56;;;9.21;97.50
57234;BME280;43090;52.604;13.318;2022-11-13T06:09:05;102457.16;;;9.33;98.21
57234;BME280;43090;52.604;13.318;2022-11-13T06:11:32;102464.13;;;9.14;97.92
57234;BME280;43090;52.604;13.318;2022-11-13T06:13:59;102451.53;;;9.17;99.04
57234;BME280;43090;52.604;13.318;2022-11-13T06:16:28;102438.22;;;9.16;99.91
57234;BME280;43090;52.604;13.318;2022-11-13T06:18:57;102414.88;;;8.97;99.23
57234;BME280;43090;52.604;13.318;2022-11-13T06:21:26;102450.13;;;9.07;100.00
57234;BME280;43090;52.604;13.318;2022-11-13T06:23:53;102412.78;;;9.06;99.75
57234;BME280;43090;52.604;13.318;2022-11-13T06:26:27;102395.00;;;8.81;100.00
57234;BME280;43090;52.604;13.318;2022-11-13T06:28:53;102426.72;;;9.14;100.00
57234;BME280;43090;52.604;13.318;2022-11-13T07:34:20;102360.31;;;9.03;100.00
57234;BME280;43090;52.604;13.318;2022-11-13T08:03:38;102354.75;;;8.86;100.00
57234;BME280;43090;52.604;13.318;2022-11-13T08:13:22;102356.22;;;8.94;100.00
57234;BME280;43090;52.604;13.318;2022-11-13T08:15:51;102385.91;;;9.32;100.00
57234;BME280;43090;52.604;13.318;2022-11-13T08:18:18;102396.91;;;9.47;100.00
57234;BME280;43090;52.604;13.318;2022-11-13T08:20:44;102396.59;;;9.32;100.00
57234;BME280;43090;52.604;13.318;2022-11-13T08:23:11;102389.72;;;9.49;100.00
57234;BME280;43090;52.604;13.318;2022-11-13T08:25:37;102367.91;;;9.14;100.00
57234;BME280;43090;52.604;13.318;2022-11-13T08:28:04;102337.72;;;9.12;100.00
57234;BME280;43090;52.604;13.318;2022-11-13T08:30:44;102358.19;;;9.13;100.00
57234;BME280;43090;52.604;13.318;2022-11-13T08:33:24;102337.84;;;9.09;100.00
57234;BME280;43090;52.604;13.318;2022-11-13T08:36:09;102348.06;;;9.21;100.00
57234;BME280;43090;52.604;13.318;2022-11-13T08:46:11;102375.66;;;9.44;100.00
57234;BME280;43090;52.604;13.318;2022-11-13T08:48:53;102375.03;;;9.37;100.00
57234;BME280;43090;52.604;13.318;2022-11-13T08:51:25;102375.44;;;9.50;100.00
57234;BME280;43090;52.604;13.318;2022-11-13T08:56:52;102362.25;;;8.99;100.00
57234;BME280;43090;52.604;13.318;2022-11-13T08:59:48;102361.13;;;9.29;100.00
57234;BME280;43090;52.604;13.318;2022-11-13T09:02:15;102350.66;;;9.23;100.00
57234;BME280;43090;52.604;13.318;2022-11-13T09:04:52;102382.13;;;9.60;100.00
57234;BME280;43090;52.604;13.318;2022-11-13T09:07:19;102358.56;;;9.48;100.00
57234;BME280;43090;52.604;13.318;2022-11-13T09:09:52;102394.47;;;9.64;100.00
57234;BME280;43090;52.604;13.318;2022-11-13T09:12:19;102357.31;;;9.34;100.00
57234;BME280;43090;52.604;13.318;2022-11-13T09:14:52;102373.81;;;9.46;100.00
57234;BME280;43090;52.604;13.318;2022-11-13T09:17:19;102357.38;;;9.33;100.00
57234;BME280;43090;52.604;13.318;2022-11-13T09:19:46;102338.25;;;9.44;100.00
57234;BME280;43090;52.604;13.318;2022-11-13T09:22:13;102385.00;;;9.78;100.00
57234;BME280;43090;52.604;13.318;2022-11-13T09:24:40;102356.25;;;9.39;100.00
57234;BME280;43090;52.604;13.318;2022-11-13T09:27:06;102366.72;;;9.45;100.00
57234;BME280;43090;52.604;13.318;2022-11-13T09:52:32;102315.63;;;9.30;100.00
57234;BME280;43090;52.604;13.318;2022-11-13T09:55:40;102321.75;;;9.32;100.00
57234;BME280;43090;52.604;13.318;2022-11-13T09:58:37;102338.09;;;9.47;100.00
57234;BME280;43090;52.604;13.318;2022-11-13T10:01:25;102359.31;;;9.52;98.52
57234;BME280;43090;52.604;13.318;2022-11-13T10:15:28;102303.72;;;9.60;96.02
57234;BME280;43090;52.604;13.318;2022-11-13T10:22:01;102304.78;;;9.76;93.26
57234;BME280;43090;52.604;13.318;2022-11-13T10:25:04;102307.47;;;9.97;91.25
57234;BME280;43090;52.604;13.318;2022-11-13T10:27:55;102322.25;;;9.85;93.13
57234;BME280;43090;52.604;13.318;2022-11-13T10:30:53;102296.75;;;9.76;92.45
57234;BME280;43090;52.604;13.318;2022-11-13T10:34:28;102306.75;;;9.73;92.70
57234;BME280;43090;52.604;13.318;2022-11-13T12:45:52;102198.00;;;10.51;80.29
57234;BME280;43090;52.604;13.318;2022-11-13T13:26:16;102161.09;;;11.12;79.30
57234;BME280;43090;52.604;13.318;2022-11-13T14:17:00;102138.81;;;10.57;83.14
57234;BME280;43090;52.604;13.318;2022-11-13T14:20:16;102085.56;;;10.32;82.40
57234;BME280;43090;52.604;13.318;2022-11-13T14:31:16;102133.09;;;10.27;83.98
57234;BME280;43090;52.604;13.318;2022-11-13T14:38:23;102081.97;;;9.95;84.12
57234;BME280;43090;52.604;13.318;2022-11-13T14:41:05;102087.22;;;9.96;84.43
57234;BME280;43090;52.604;13.318;2022-11-13T14:43:51;102112.75;;;10.04;84.81
57234;BME280;43090;52.604;13.318;2022-11-13T15:22:35;102119.50;;;8.47;92.68
57234;BME280;43090;52.604;13.318;2022-11-13T15:37:17;102053.19;;;7.43;96.28
57234;BME280;43090;52.604;13.318;2022-11-13T15:40:37;102051.47;;;7.42;96.29
57234;BME280;43090;52.604;13.318;2022-11-13T15:56:15;102055.09;;;7.16;98.63
57234;BME280;43090;52.604;13.318;2022-11-13T16:02:45;102057.19;;;7.31;97.49
57234;BME280;43090;52.604;13.318;2022-11-13T16:17:18;102047.09;;;7.16;100.00
57234;BME280;43090;52.604;13.318;2022-11-13T16:19:54;102081.38;;;7.50;100.00
57234;BME280;43090;52.604;13.318;2022-11-13T16:29:55;102055.34;;;7.33;100.00
57234;BME280;43090;52.604;13.318;2022-11-13T16:32:38;102105.63;;;7.43;100.00
57234;BME280;43090;52.604;13.318;2022-11-13T16:35:10;102045.69;;;7.06;100.00
57234;BME280;43090;52.604;13.318;2022-11-13T16:37:41;102056.16;;;7.36;100.00
57234;BME280;43090;52.604;13.318;2022-11-13T16:55:40;102027.03;;;6.80;100.00
57234;BME280;43090;52.604;13.318;2022-11-13T17:05:42;102086.97;;;6.92;100.00
57234;BME280;43090;52.604;13.318;2022-11-13T17:08:52;102047.75;;;6.97;100.00
57234;BME280;43090;52.604;13.318;2022-11-13T17:53:12;102009.84;;;6.89;100.00
57234;BME280;43090;52.604;13.318;2022-11-13T17:55:39;102046.72;;;7.27;100.00
57234;BME280;43090;52.604;13.318;2022-11-13T17:58:10;102022.09;;;7.20;100.00
57234;BME280;43090;52.604;13.318;2022-11-13T18:12:27;102055.94;;;7.42;100.00
57234;BME280;43090;52.604;13.318;2022-11-13T18:15:58;102009.31;;;7.05;100.00
57234;BME280;43090;52.604;13.318;2022-11-13T21:52:59;101949.59;;;6.09;100.00
57234;BME280;43090;52.604;13.318;2022-11-13T22:14:05;101981.97;;;6.49;100.00
57234;BME280;43090;52.604;13.318;2022-11-13T22:16:50;101939.06;;;6.33;100.00
57234;BME280;43090;52.604;13.318;2022-11-13T22:27:02;101929.06;;;6.40;100.00
57234;BME280;43090;52.604;13.318;2022-11-13T22:49:15;101905.88;;;6.18;100.00
57234;BME280;43090;52.604;13.318;2022-11-13T22:52:14;101909.91;;;6.30;100.00
57234;BME280;43090;52.604;13.318;2022-11-13T22:55:18;101892.53;;;6.20;100.00
57234;BME280;43090;52.604;13.318;2022-11-13T22:58:33;101912.78;;;6.49;100.00
57234;BME280;43090;52.604;13.318;2022-11-13T23:05:19;101868.09;;;6.33;100.00
57234;BME280;43090;52.604;13.318;2022-11-13T23:08:45;101853.50;;;6.20;100.00
57234;BME280;43090;52.604;13.318;2022-11-13T23:11:49;101858.41;;;6.06;100.00
57234;BME280;43090;52.604;13.318;2022-11-13T23:14:30;101856.78;;;6.02;100.00
57234;BME280;43090;52.604;13.318;2022-11-13T23:17:08;101857.19;;;6.16;100.00
57234;BME280;43090;52.604;13.318;2022-11-13T23:19:51;101895.91;;;6.25;100.00
57234;BME280;43090;52.604;13.318;2022-11-13T23:22:32;101874.34;;;6.58;100.00
57234;BME280;43090;52.604;13.318;2022-11-13T23:26:08;101853.22;;;6.28;100.00
57234;BME280;43090;52.604;13.318;2022-11-13T23:28:41;101854.44;;;6.44;100.00
57234;BME280;43090;52.604;13.318;2022-11-13T23:31:25;101877.81;;;6.34;100.00
57234;BME280;43090;52.604;13.318;2022-11-13T23:34:24;101897.97;;;6.67;100.00
57234;BME280;43090;52.604;13.318;2022-11-13T23:37:24;101851.59;;;6.24;100.00
57234;BME280;43090;52.604;13.318;2022-11-13T23:39:56;101893.06;;;6.55;100.00
57234;BME280;43090;52.604;13.318;2022-11-13T23:42:27;101845.47;;;6.22;100.00
57234;BME280;43090;52.604;13.318;2022-11-13T23:45:19;101886.91;;;6.54;100.00
57234;BME280;43090;52.604;13.318;2022-11-13T23:48:25;101873.47;;;6.57;100.00
57234;BME280;43090;52.604;13.318;2022-11-13T23:51:17;101853.72;;;6.39;100.00
57234;BME280;43090;52.604;13.318;2022-11-13T23:54:07;101847.38;;;6.43;99.93
